createdAt,value
2023-03-15T00:00:09.602Z,7.2
2023-03-15T00:15:32.917Z,1.1
2023-03-15T00:30:56.230Z,13.2
2023-03-15T00:46:19.528Z,3.4
2023-03-15T01:01:42.845Z,6.2
2023-03-15T01:17:06.152Z,3.8
2023-03-15T01:32:29.465Z,3.3
2023-03-15T01:47:51.780Z,3.2
2023-03-15T02:03:15.078Z,1.2
2023-03-15T02:18:38.389Z,2.1
2023-03-15T02:34:01.697Z,1.8
2023-03-15T02:49:25.030Z,1.1
2023-03-15T03:04:48.332Z,2.8
2023-03-15T03:20:11.638Z,3.7
2023-03-15T03:35:33.980Z,5.5
2023-03-15T03:50:56.300Z,3.2
2023-03-15T04:06:18.640Z,6.5
2023-03-15T04:21:40.949Z,15
2023-03-15T04:37:03.289Z,10.2
2023-03-15T04:52:25.616Z,4.9
2023-03-15T05:07:48.879Z,2.4
2023-03-15T05:23:12.154Z,6.1
2023-03-15T05:38:35.418Z,6.2
2023-03-15T05:53:58.676Z,2.6
2023-03-15T06:09:21.942Z,4.7
2023-03-15T06:24:45.215Z,2.9
2023-03-15T06:40:08.476Z,5
2023-03-15T06:55:31.740Z,3.5
2023-03-15T07:10:55.000Z,4.9
2023-03-15T07:26:18.276Z,3.2
2023-03-15T07:41:41.532Z,5
2023-03-15T07:57:04.794Z,1.7
2023-03-15T08:12:27.070Z,5
2023-03-15T08:27:50.342Z,6.4
2023-03-15T08:43:13.606Z,13.1
2023-03-15T08:58:36.867Z,9.6
2023-03-15T09:14:00.135Z,3
2023-03-15T09:29:23.409Z,13.3
2023-03-15T09:44:46.656Z,7.2
2023-03-15T10:00:08.955Z,3.1
2023-03-15T10:15:31.231Z,4.7
2023-03-15T10:30:53.516Z,3.3
2023-03-15T10:46:15.793Z,5.2
2023-03-15T10:47:39.206Z,4.8
2023-03-15T10:49:02.602Z,5.2
2023-03-15T10:50:26.016Z,4.5
2023-03-15T10:51:49.422Z,2.3
2023-03-15T10:53:12.832Z,3.5
2023-03-15T10:54:36.238Z,1.3
2023-03-15T10:55:59.658Z,4.2
2023-03-15T10:57:23.065Z,3.5
2023-03-15T10:58:46.463Z,4
2023-03-15T11:00:09.886Z,3.4
2023-03-15T11:01:33.285Z,3.7
2023-03-15T11:02:56.696Z,2
2023-03-15T11:04:19.106Z,3.1
2023-03-15T11:05:42.516Z,2.8
2023-03-15T11:07:05.941Z,4
2023-03-15T11:08:29.335Z,5.1
2023-03-15T11:09:52.743Z,6.2
2023-03-15T11:11:16.153Z,4.6
2023-03-15T11:12:39.569Z,4.1
2023-03-15T11:14:01.996Z,4
2023-03-15T11:15:24.428Z,4.2
2023-03-15T11:16:47.845Z,3.2
2023-03-15T11:18:11.249Z,7.5
2023-03-15T11:19:34.651Z,5.2
2023-03-15T11:20:58.060Z,5.5
2023-03-15T11:22:21.461Z,5.2
2023-03-15T11:23:44.879Z,5.3
2023-03-15T11:25:08.293Z,5
2023-03-15T11:26:31.693Z,2.9
2023-03-15T11:27:55.102Z,5.6
2023-03-15T11:29:18.508Z,2.5
2023-03-15T11:30:41.921Z,2.3
2023-03-15T11:32:05.327Z,2.2
2023-03-15T11:33:27.756Z,6.3
2023-03-15T11:34:51.172Z,2.5
2023-03-15T11:36:14.568Z,4.9
2023-03-15T11:37:37.974Z,1.9
2023-03-15T11:39:01.387Z,4.5
2023-03-15T11:40:24.806Z,4.1
2023-03-15T11:41:48.195Z,3.6
2023-03-15T11:43:10.632Z,3.5
2023-03-15T11:44:33.051Z,3.2
2023-03-15T11:45:56.467Z,3.5
2023-03-15T11:47:19.880Z,4.2
2023-03-15T11:48:43.278Z,4.4
2023-03-15T11:50:06.700Z,3
2023-03-15T11:51:30.106Z,3.6
2023-03-15T11:52:53.514Z,5.1
2023-03-15T11:54:16.904Z,4.3
2023-03-15T11:55:40.326Z,5
2023-03-15T11:57:03.748Z,5.4
2023-03-15T11:58:27.160Z,4.4
2023-03-15T11:59:50.557Z,3.9
2023-03-15T12:01:13.958Z,4
2023-03-15T12:02:36.384Z,3.3
2023-03-15T12:03:59.801Z,6.3
2023-03-15T12:05:23.210Z,2.8
2023-03-15T12:06:46.613Z,4.6
2023-03-15T12:08:10.019Z,3.7
2023-03-15T12:09:33.432Z,3.6
2023-03-15T12:10:56.843Z,2.8
2023-03-15T12:12:19.295Z,3.6
2023-03-15T12:13:41.712Z,4.2
2023-03-15T12:15:04.152Z,3
2023-03-15T12:16:26.561Z,5
2023-03-15T12:17:48.993Z,3.5
2023-03-15T12:19:11.424Z,4.7
2023-03-15T12:20:34.830Z,4.3
2023-03-15T12:21:58.234Z,2.1
2023-03-15T12:23:21.649Z,3.7
2023-03-15T12:24:45.051Z,2.1
2023-03-15T12:26:08.453Z,5.4
2023-03-15T12:27:31.881Z,2.4
2023-03-15T12:28:55.288Z,4.8
2023-03-15T12:30:18.678Z,2.1
2023-03-15T12:31:42.098Z,1.9
2023-03-15T12:33:05.518Z,3.2
2023-03-15T12:34:28.933Z,3.7
2023-03-15T12:35:52.338Z,2.5
2023-03-15T12:37:14.755Z,1.9
2023-03-15T12:38:38.166Z,1.6
2023-03-15T12:40:01.576Z,2.1
2023-03-15T12:41:24.979Z,2.2
2023-03-15T12:42:48.397Z,4.7
2023-03-15T12:44:11.806Z,5.2
2023-03-15T12:45:35.202Z,2.6
2023-03-15T12:46:57.627Z,2
2023-03-15T12:48:20.067Z,2.2
2023-03-15T12:49:42.486Z,2.2
2023-03-15T12:51:04.919Z,1.5
2023-03-15T12:52:28.329Z,2.6
2023-03-15T12:53:51.732Z,2.4
2023-03-15T12:55:15.147Z,2.1
2023-03-15T12:56:38.556Z,2.8
2023-03-15T12:58:01.949Z,2.3
2023-03-15T12:59:25.363Z,2.4
2023-03-15T13:00:48.766Z,2.4
2023-03-15T13:02:12.192Z,2.1
2023-03-15T13:03:35.601Z,2.6
2023-03-15T13:04:58.995Z,1.2
2023-03-15T13:06:22.409Z,1.3
2023-03-15T13:07:45.810Z,3.2
2023-03-15T13:09:08.240Z,1.3
2023-03-15T13:10:31.646Z,2.4
2023-03-15T13:11:55.056Z,1.7
2023-03-15T13:13:18.464Z,8.8
2023-03-15T13:14:41.882Z,7.2
2023-03-15T13:16:05.284Z,12.5
2023-03-15T13:17:28.702Z,6
2023-03-15T13:18:51.136Z,1.9
2023-03-15T13:20:13.558Z,2.4
2023-03-15T13:21:35.993Z,1.9
2023-03-15T13:22:58.408Z,2.4
2023-03-15T13:24:21.821Z,3.1
2023-03-15T13:25:45.232Z,3.5
2023-03-15T13:27:07.664Z,2
2023-03-15T13:28:31.076Z,1.9
2023-03-15T13:29:54.467Z,1.7
2023-03-15T13:31:17.886Z,2
2023-03-15T13:32:41.293Z,4.1
2023-03-15T13:34:04.703Z,5.3
2023-03-15T13:35:28.099Z,2.1
2023-03-15T13:36:51.000Z,3.6
2023-03-15T13:38:14.920Z,4.4
2023-03-15T13:39:38.337Z,5.7
2023-03-15T13:41:01.744Z,2.9
2023-03-15T13:42:25.147Z,3.6
2023-03-15T13:43:48.552Z,3.5
2023-03-15T13:45:10.967Z,2.7
2023-03-15T13:46:34.381Z,1.5
2023-03-15T13:47:57.810Z,1.9
2023-03-15T13:49:21.218Z,3.8
2023-03-15T13:50:43.639Z,2.9
2023-03-15T13:52:06.063Z,2.7
2023-03-15T13:53:28.494Z,3.1
2023-03-15T13:54:50.921Z,3.9
2023-03-15T13:56:14.334Z,3.2
2023-03-15T13:57:37.740Z,3
2023-03-15T13:59:01.156Z,5.3
2023-03-15T14:00:24.562Z,5.1
2023-03-15T14:01:47.962Z,2.8
2023-03-15T14:03:11.381Z,2.7
2023-03-15T14:04:34.777Z,3
2023-03-15T14:05:58.198Z,3.1
2023-03-15T14:07:21.606Z,2.3
2023-03-15T14:08:45.001Z,1.8
2023-03-15T14:10:08.426Z,2
2023-03-15T14:11:31.833Z,3.3
2023-03-15T14:12:54.255Z,2.1
2023-03-15T14:14:17.653Z,2.6
2023-03-15T14:15:41.071Z,1.9
2023-03-15T14:17:04.485Z,2.7
2023-03-15T14:18:27.893Z,4.6
2023-03-15T14:19:51.292Z,3.4
2023-03-15T14:21:14.704Z,3.2
2023-03-15T14:22:37.140Z,4.4
2023-03-15T14:23:59.566Z,2
2023-03-15T14:25:21.987Z,4.5
2023-03-15T14:26:44.425Z,3.1
2023-03-15T14:28:07.822Z,1.7
2023-03-15T14:29:31.241Z,4
2023-03-15T14:30:54.638Z,4.1
2023-03-15T14:32:18.053Z,4.5
2023-03-15T14:33:41.477Z,3.5
2023-03-15T14:35:04.875Z,3
2023-03-15T14:36:28.278Z,2.1
2023-03-15T14:37:51.684Z,2.5
2023-03-15T14:39:15.102Z,4
2023-03-15T14:40:38.501Z,4.1
2023-03-15T14:42:01.928Z,5.3
2023-03-15T14:43:25.331Z,2.2
2023-03-15T14:44:47.741Z,3.3
2023-03-15T14:46:11.159Z,2.4
2023-03-15T14:48:57.985Z,4.4
2023-03-15T14:50:21.396Z,4.4
2023-03-15T14:51:44.806Z,6.4
2023-03-15T14:53:08.214Z,2.8
2023-03-15T14:54:31.627Z,3
2023-03-15T14:55:54.063Z,6.7
2023-03-15T14:57:16.480Z,2.9
2023-03-15T14:58:38.918Z,5
2023-03-15T15:00:01.345Z,4.4
2023-03-15T15:01:24.752Z,2.2
2023-03-15T15:02:47.185Z,3
2023-03-15T15:04:09.614Z,3.9
2023-03-15T15:05:33.014Z,2.7
2023-03-15T15:06:56.418Z,3
2023-03-15T15:08:19.842Z,5.6
2023-03-15T15:09:43.229Z,3.2
2023-03-15T15:11:06.635Z,4
2023-03-15T15:12:30.043Z,3.5
2023-03-15T15:13:53.462Z,3
2023-03-15T15:15:16.876Z,3.2
2023-03-15T15:16:40.284Z,4.8
2023-03-15T15:18:03.696Z,1.9
2023-03-15T15:19:27.093Z,5.5
2023-03-15T15:20:50.504Z,2.5
2023-03-15T15:22:12.924Z,2.9
2023-03-15T15:23:36.333Z,3.2
2023-03-15T15:24:59.734Z,6.1
2023-03-15T15:26:23.153Z,4.5
2023-03-15T15:27:46.561Z,3.4
2023-03-15T15:29:09.966Z,3.6
2023-03-15T15:30:33.371Z,4.9
2023-03-15T15:31:55.807Z,5.5
2023-03-15T15:33:18.241Z,2.3
2023-03-15T15:34:41.636Z,3.9
2023-03-15T15:36:05.064Z,3.8
2023-03-15T15:37:28.472Z,5.4
2023-03-15T15:38:51.876Z,4.1
2023-03-15T15:40:15.280Z,3.6
2023-03-15T15:41:38.692Z,3.5
2023-03-15T15:43:02.121Z,3.4
2023-03-15T15:44:25.532Z,7.4
2023-03-15T15:45:48.935Z,4.1
2023-03-15T15:47:12.336Z,4.9
2023-03-15T15:48:35.748Z,3.8
2023-03-15T15:49:59.173Z,4.3
2023-03-15T15:51:21.595Z,6.1
2023-03-15T15:52:45.001Z,4.5
2023-03-15T15:54:08.402Z,4.4
2023-03-15T15:55:31.822Z,5.2
2023-03-15T15:56:55.236Z,6.6
2023-03-15T15:58:18.635Z,6.4
2023-03-15T15:59:42.037Z,6
2023-03-15T16:01:04.475Z,6.4
2023-03-15T16:02:26.916Z,5.6
2023-03-15T16:05:12.746Z,3.7
2023-03-15T16:06:35.181Z,5.3
2023-03-15T16:07:57.615Z,5.3
2023-03-15T16:09:20.037Z,5.9
2023-03-15T16:10:42.470Z,6.2
2023-03-15T16:12:05.877Z,5.7
2023-03-15T16:13:29.279Z,5.6
2023-03-15T16:14:52.690Z,5.2
2023-03-15T16:16:16.108Z,4.3
2023-03-15T16:17:39.516Z,5.3
2023-03-15T16:19:02.920Z,4.3
2023-03-15T16:20:26.323Z,5.4
2023-03-15T16:21:49.738Z,5.8
2023-03-15T16:23:13.146Z,5.7
2023-03-15T16:24:36.549Z,22.1
2023-03-15T16:25:59.965Z,11.3
2023-03-15T16:27:23.378Z,4.8
2023-03-15T16:28:45.785Z,6.3
2023-03-15T16:30:09.191Z,6.5
2023-03-15T16:31:32.611Z,5.8
2023-03-15T16:32:56.018Z,6.9
2023-03-15T16:34:19.432Z,7.7
2023-03-15T16:35:42.853Z,7.3
2023-03-15T16:37:06.244Z,6.6
2023-03-15T16:38:28.689Z,5
2023-03-15T16:39:51.116Z,4.5
2023-03-15T16:41:14.521Z,8.9
2023-03-15T16:42:37.915Z,4.8
2023-03-15T16:44:01.335Z,6.5
2023-03-15T16:45:24.750Z,7.7
2023-03-15T16:46:48.144Z,11
2023-03-15T16:48:11.558Z,7.9
2023-03-15T16:49:34.977Z,5.4
2023-03-15T16:50:58.379Z,8.1
2023-03-15T16:52:21.778Z,5.4
2023-03-15T16:53:45.187Z,7.3
2023-03-15T16:55:08.596Z,6.4
2023-03-15T16:56:32.015Z,7.3
2023-03-15T16:57:54.440Z,8.4
2023-03-15T16:59:17.857Z,6.5
2023-03-15T17:00:41.264Z,6.3
2023-03-15T17:02:04.668Z,4.7
2023-03-15T17:03:28.077Z,4.8
2023-03-15T17:04:51.492Z,5.7
2023-03-15T17:06:14.889Z,7.6
2023-03-15T17:07:37.336Z,7
2023-03-15T17:08:59.749Z,6
2023-03-15T17:10:22.181Z,7.6
2023-03-15T17:11:44.617Z,7.1
2023-03-15T17:13:08.020Z,5.6
2023-03-15T17:14:31.429Z,6
2023-03-15T17:15:54.829Z,5.8
2023-03-15T17:17:18.245Z,8.5
2023-03-15T17:18:41.647Z,6.1
2023-03-15T17:20:05.051Z,6.4
2023-03-15T17:21:28.465Z,6.9
2023-03-15T17:22:51.881Z,6.6
2023-03-15T17:24:15.290Z,8.5
2023-03-15T17:25:38.686Z,7.4
2023-03-15T17:27:02.097Z,5.7
2023-03-15T17:28:25.511Z,6
2023-03-15T17:29:47.932Z,8
2023-03-15T17:31:11.351Z,7.5
2023-03-15T17:32:34.767Z,5.1
2023-03-15T17:33:58.162Z,8.2
2023-03-15T17:35:21.579Z,7.7
2023-03-15T17:36:44.976Z,6.1
2023-03-15T17:38:08.393Z,5.8
2023-03-15T17:40:54.194Z,6.7
2023-03-15T17:42:16.611Z,8.9
2023-03-15T17:43:39.086Z,8
2023-03-15T17:45:01.564Z,9
2023-03-15T17:46:24.030Z,7.8
2023-03-15T17:47:47.471Z,6.4
2023-03-15T17:49:10.929Z,7.3
2023-03-15T17:50:34.387Z,6.9
2023-03-15T17:51:57.830Z,6.3
2023-03-15T17:53:21.292Z,7.4
2023-03-15T17:54:44.739Z,9.4
2023-03-15T17:56:08.189Z,7.2
2023-03-15T17:57:31.638Z,9.5
2023-03-15T17:58:55.086Z,9
2023-03-15T18:00:18.541Z,8.4
2023-03-15T18:01:41.996Z,11.1
2023-03-15T18:03:05.440Z,8
2023-03-15T18:04:27.913Z,6.5
2023-03-15T18:05:50.372Z,13
2023-03-15T18:07:13.830Z,11.3
2023-03-15T18:08:37.277Z,16.4
2023-03-15T18:10:00.738Z,19.4
2023-03-15T18:11:24.180Z,16.9
2023-03-15T18:12:47.626Z,14
2023-03-15T18:14:10.114Z,13
2023-03-15T18:15:32.565Z,11.6
2023-03-15T18:16:56.017Z,9.9
2023-03-15T18:18:19.479Z,12
2023-03-15T18:19:42.925Z,9.1
2023-03-15T18:21:06.387Z,11.4
2023-03-15T18:22:29.829Z,18.2
2023-03-15T18:23:53.272Z,82.9
2023-03-15T18:25:16.722Z,107.7
2023-03-15T18:26:40.184Z,93.8
2023-03-15T18:28:03.626Z,111.7
2023-03-15T18:29:27.080Z,104.8
2023-03-15T18:30:50.528Z,100.8
2023-03-15T18:32:13.982Z,72.2
2023-03-15T18:47:36.309Z,4.1
2023-03-15T19:02:59.597Z,16.8
2023-03-15T19:18:22.904Z,4.6
2023-03-15T19:33:46.212Z,4.5
2023-03-15T19:49:09.523Z,3.9
2023-03-15T20:04:32.839Z,2.6
2023-03-15T20:19:56.137Z,7.8
2023-03-15T20:35:18.477Z,7
2023-03-15T20:50:40.796Z,2.2
2023-03-15T21:06:04.109Z,2.2
2023-03-15T21:21:27.416Z,8.5
2023-03-15T21:36:50.742Z,1.3
2023-03-15T21:52:14.035Z,5.4
2023-03-15T22:07:37.353Z,3.4
2023-03-15T22:23:00.662Z,7.7
2023-03-15T22:38:23.969Z,3.6
2023-03-15T22:53:47.275Z,2.2
2023-03-15T23:09:10.587Z,4.1
2023-03-15T23:24:33.891Z,3.1
2023-03-15T23:39:57.199Z,1.9
2023-03-15T23:55:20.512Z,2.8
